sensor_id;sensor_type;location;lat;lon;timestamp;P1;durP1;ratioP1;P2;durP2;ratioP2
9972;SDS011;5027;53.560;10.062;2024-01-07T00:02:16;4.50;;;2.40;;
9972;SDS011;5027;53.560;10.062;2024-01-07T00:04:42;4.83;;;2.00;;
9972;SDS011;5027;53.560;10.062;2024-01-07T00:07:09;2.57;;;2.30;;
9972;SDS011;5027;53.560;10.062;2024-01-07T00:09:36;3.20;;;2.23;;
9972;SDS011;5027;53.560;10.062;2024-01-07T00:12:02;3.33;;;1.83;;
9972;SDS011;5027;53.560;10.062;2024-01-07T00:14:29;5.10;;;2.00;;
9972;SDS011;5027;53.560;10.062;2024-01-07T00:16:56;2.53;;;2.13;;
9972;SDS011;5027;53.560;10.062;2024-01-07T00:19:23;3.40;;;1.97;;
9972;SDS011;5027;53.560;10.062;2024-01-07T00:21:50;2.70;;;1.97;;
9972;SDS011;5027;53.560;10.062;2024-01-07T00:24:16;2.30;;;2.10;;
9972;SDS011;5027;53.560;10.062;2024-01-07T00:26:43;3.23;;;2.50;;
9972;SDS011;5027;53.560;10.062;2024-01-07T00:29:10;3.10;;;2.30;;
9972;SDS011;5027;53.560;10.062;2024-01-07T00:31:37;4.20;;;2.13;;
9972;SDS011;5027;53.560;10.062;2024-01-07T00:34:06;5.23;;;3.90;;
9972;SDS011;5027;53.560;10.062;2024-01-07T00:36:32;5.63;;;5.13;;
9972;SDS011;5027;53.560;10.062;2024-01-07T00:38:59;5.40;;;4.27;;
9972;SDS011;5027;53.560;10.062;2024-01-07T00:41:26;3.20;;;2.70;;
9972;SDS011;5027;53.560;10.062;2024-01-07T00:43:53;3.97;;;2.60;;
9972;SDS011;5027;53.560;10.062;2024-01-07T00:46:19;4.53;;;2.50;;
9972;SDS011;5027;53.560;10.062;2024-01-07T00:48:46;3.60;;;2.10;;
9972;SDS011;5027;53.560;10.062;2024-01-07T00:51:13;4.60;;;2.10;;
9972;SDS011;5027;53.560;10.062;2024-01-07T00:53:40;3.37;;;2.10;;
9972;SDS011;5027;53.560;10.062;2024-01-07T00:56:06;3.47;;;2.20;;
9972;SDS011;5027;53.560;10.062;2024-01-07T00:58:33;4.00;;;2.17;;
9972;SDS011;5027;53.560;10.062;2024-01-07T01:01:01;2.57;;;2.07;;
9972;SDS011;5027;53.560;10.062;2024-01-07T01:03:28;2.20;;;2.00;;
9972;SDS011;5027;53.560;10.062;2024-01-07T01:05:55;2.23;;;2.03;;
9972;SDS011;5027;53.560;10.062;2024-01-07T01:08:22;3.90;;;1.63;;
9972;SDS011;5027;53.560;10.062;2024-01-07T01:10:49;3.77;;;2.10;;
9972;SDS011;5027;53.560;10.062;2024-01-07T01:13:16;3.57;;;2.00;;
9972;SDS011;5027;53.560;10.062;2024-01-07T01:15:42;4.07;;;2.13;;
9972;SDS011;5027;53.560;10.062;2024-01-07T01:18:10;3.53;;;2.07;;
9972;SDS011;5027;53.560;10.062;2024-01-07T01:20:36;2.77;;;2.10;;
9972;SDS011;5027;53.560;10.062;2024-01-07T01:23:03;3.20;;;1.80;;
9972;SDS011;5027;53.560;10.062;2024-01-07T01:25:30;2.43;;;1.90;;
9972;SDS011;5027;53.560;10.062;2024-01-07T01:27:57;3.50;;;1.73;;
9972;SDS011;5027;53.560;10.062;2024-01-07T01:30:23;3.63;;;2.00;;
9972;SDS011;5027;53.560;10.062;2024-01-07T01:32:50;3.47;;;1.97;;
9972;SDS011;5027;53.560;10.062;2024-01-07T01:35:17;2.87;;;2.00;;
9972;SDS011;5027;53.560;10.062;2024-01-07T01:37:44;5.40;;;2.33;;
9972;SDS011;5027;53.560;10.062;2024-01-07T01:40:11;3.53;;;1.80;;
9972;SDS011;5027;53.560;10.062;2024-01-07T01:42:38;3.53;;;2.03;;
9972;SDS011;5027;53.560;10.062;2024-01-07T01:45:04;4.67;;;2.67;;
9972;SDS011;5027;53.560;10.062;2024-01-07T01:47:31;2.63;;;2.10;;
9972;SDS011;5027;53.560;10.062;2024-01-07T01:49:58;2.87;;;1.80;;
9972;SDS011;5027;53.560;10.062;2024-01-07T01:52:25;3.13;;;1.83;;
9972;SDS011;5027;53.560;10.062;2024-01-07T01:54:53;5.33;;;1.90;;
9972;SDS011;5027;53.560;10.062;2024-01-07T01:57:21;7.33;;;2.17;;
9972;SDS011;5027;53.560;10.062;2024-01-07T01:59:50;3.17;;;2.03;;
9972;SDS011;5027;53.560;10.062;2024-01-07T02:02:17;3.17;;;1.90;;
9972;SDS011;5027;53.560;10.062;2024-01-07T02:04:44;3.63;;;2.00;;
9972;SDS011;5027;53.560;10.062;2024-01-07T02:07:11;4.53;;;2.27;;
9972;SDS011;5027;53.560;10.062;2024-01-07T02:09:39;2.43;;;1.80;;
9972;SDS011;5027;53.560;10.062;2024-01-07T02:12:06;2.37;;;2.00;;
9972;SDS011;5027;53.560;10.062;2024-01-07T02:14:38;4.00;;;2.13;;
9972;SDS011;5027;53.560;10.062;2024-01-07T02:17:05;3.50;;;2.80;;
9972;SDS011;5027;53.560;10.062;2024-01-07T02:19:32;4.43;;;2.03;;
9972;SDS011;5027;53.560;10.062;2024-01-07T02:21:59;4.20;;;2.40;;
9972;SDS011;5027;53.560;10.062;2024-01-07T02:24:26;5.50;;;3.03;;
9972;SDS011;5027;53.560;10.062;2024-01-07T02:26:53;2.77;;;2.00;;
9972;SDS011;5027;53.560;10.062;2024-01-07T02:29:20;4.33;;;2.20;;
9972;SDS011;5027;53.560;10.062;2024-01-07T02:31:46;4.07;;;2.50;;
9972;SDS011;5027;53.560;10.062;2024-01-07T02:34:13;5.90;;;3.47;;
9972;SDS011;5027;53.560;10.062;2024-01-07T02:36:40;4.60;;;2.40;;
9972;SDS011;5027;53.560;10.062;2024-01-07T02:39:07;5.13;;;4.03;;
9972;SDS011;5027;53.560;10.062;2024-01-07T02:41:33;2.90;;;2.20;;
9972;SDS011;5027;53.560;10.062;2024-01-07T02:44:00;4.77;;;2.30;;
9972;SDS011;5027;53.560;10.062;2024-01-07T02:46:27;5.07;;;2.53;;
9972;SDS011;5027;53.560;10.062;2024-01-07T02:48:53;3.73;;;1.93;;
9972;SDS011;5027;53.560;10.062;2024-01-07T02:51:20;3.83;;;1.87;;
9972;SDS011;5027;53.560;10.062;2024-01-07T02:53:47;6.33;;;5.30;;
9972;SDS011;5027;53.560;10.062;2024-01-07T02:56:14;2.50;;;1.80;;
9972;SDS011;5027;53.560;10.062;2024-01-07T02:58:40;2.90;;;1.67;;
9972;SDS011;5027;53.560;10.062;2024-01-07T03:01:10;2.33;;;1.63;;
9972;SDS011;5027;53.560;10.062;2024-01-07T03:03:37;3.60;;;1.90;;
9972;SDS011;5027;53.560;10.062;2024-01-07T03:06:04;2.13;;;1.43;;
9972;SDS011;5027;53.560;10.062;2024-01-07T03:08:31;2.67;;;1.70;;
9972;SDS011;5027;53.560;10.062;2024-01-07T03:10:57;3.73;;;1.77;;
9972;SDS011;5027;53.560;10.062;2024-01-07T03:13:24;3.67;;;2.10;;
9972;SDS011;5027;53.560;10.062;2024-01-07T03:15:51;3.10;;;1.90;;
9972;SDS011;5027;53.560;10.062;2024-01-07T03:18:18;2.47;;;1.70;;
9972;SDS011;5027;53.560;10.062;2024-01-07T03:20:44;5.80;;;2.10;;
9972;SDS011;5027;53.560;10.062;2024-01-07T03:23:11;1.93;;;1.50;;
9972;SDS011;5027;53.560;10.062;2024-01-07T03:25:38;3.07;;;1.77;;
9972;SDS011;5027;53.560;10.062;2024-01-07T03:28:05;3.53;;;1.90;;
9972;SDS011;5027;53.560;10.062;2024-01-07T03:30:32;2.77;;;1.90;;
9972;SDS011;5027;53.560;10.062;2024-01-07T03:32:59;3.40;;;1.87;;
9972;SDS011;5027;53.560;10.062;2024-01-07T03:35:25;4.73;;;2.03;;
9972;SDS011;5027;53.560;10.062;2024-01-07T03:37:52;4.43;;;2.10;;
9972;SDS011;5027;53.560;10.062;2024-01-07T03:40:19;5.17;;;1.77;;
9972;SDS011;5027;53.560;10.062;2024-01-07T03:42:45;2.93;;;1.60;;
9972;SDS011;5027;53.560;10.062;2024-01-07T03:45:12;2.83;;;1.80;;
9972;SDS011;5027;53.560;10.062;2024-01-07T03:47:39;3.90;;;2.07;;
9972;SDS011;5027;53.560;10.062;2024-01-07T03:50:06;4.37;;;2.07;;
9972;SDS011;5027;53.560;10.062;2024-01-07T03:52:33;3.97;;;1.97;;
9972;SDS011;5027;53.560;10.062;2024-01-07T03:55:01;3.57;;;1.80;;
9972;SDS011;5027;53.560;10.062;2024-01-07T03:57:28;2.37;;;1.97;;
9972;SDS011;5027;53.560;10.062;2024-01-07T03:59:55;5.97;;;2.60;;
9972;SDS011;5027;53.560;10.062;2024-01-07T04:02:22;3.83;;;1.77;;
9972;SDS011;5027;53.560;10.062;2024-01-07T04:04:48;4.03;;;1.90;;
9972;SDS011;5027;53.560;10.062;2024-01-07T04:07:15;3.53;;;1.70;;
9972;SDS011;5027;53.560;10.062;2024-01-07T04:09:42;1.70;;;1.47;;
9972;SDS011;5027;53.560;10.062;2024-01-07T04:12:09;2.73;;;1.70;;
9972;SDS011;5027;53.560;10.062;2024-01-07T04:14:36;3.27;;;1.83;;
9972;SDS011;5027;53.560;10.062;2024-01-07T04:17:03;3.60;;;1.80;;
9972;SDS011;5027;53.560;10.062;2024-01-07T04:19:29;4.60;;;1.90;;
9972;SDS011;5027;53.560;10.062;2024-01-07T04:21:56;4.37;;;1.90;;
9972;SDS011;5027;53.560;10.062;2024-01-07T04:24:23;4.17;;;1.70;;
9972;SDS011;5027;53.560;10.062;2024-01-07T04:26:50;5.43;;;1.83;;
9972;SDS011;5027;53.560;10.062;2024-01-07T04:29:17;2.13;;;1.50;;
9972;SDS011;5027;53.560;10.062;2024-01-07T04:31:43;5.30;;;2.07;;
9972;SDS011;5027;53.560;10.062;2024-01-07T04:34:10;2.43;;;1.73;;
9972;SDS011;5027;53.560;10.062;2024-01-07T04:36:37;2.97;;;2.03;;
9972;SDS011;5027;53.560;10.062;2024-01-07T04:39:04;4.50;;;1.97;;
9972;SDS011;5027;53.560;10.062;2024-01-07T04:41:31;3.47;;;1.50;;
9972;SDS011;5027;53.560;10.062;2024-01-07T04:43:57;4.03;;;1.90;;
9972;SDS011;5027;53.560;10.062;2024-01-07T04:46:24;3.77;;;1.77;;
9972;SDS011;5027;53.560;10.062;2024-01-07T04:48:51;2.70;;;1.47;;
9972;SDS011;5027;53.560;10.062;2024-01-07T04:51:18;3.63;;;1.70;;
9972;SDS011;5027;53.560;10.062;2024-01-07T04:53:44;2.97;;;1.53;;
9972;SDS011;5027;53.560;10.062;2024-01-07T04:56:11;6.60;;;1.77;;
9972;SDS011;5027;53.560;10.062;2024-01-07T04:58:38;7.47;;;1.80;;
9972;SDS011;5027;53.560;10.062;2024-01-07T05:01:06;2.37;;;1.70;;
9972;SDS011;5027;53.560;10.062;2024-01-07T05:03:33;3.23;;;1.70;;
9972;SDS011;5027;53.560;10.062;2024-01-07T05:06:00;1.87;;;1.40;;
9972;SDS011;5027;53.560;10.062;2024-01-07T05:08:28;4.07;;;1.83;;
9972;SDS011;5027;53.560;10.062;2024-01-07T05:10:55;2.07;;;1.50;;
9972;SDS011;5027;53.560;10.062;2024-01-07T05:13:22;3.43;;;1.50;;
9972;SDS011;5027;53.560;10.062;2024-01-07T05:15:48;4.80;;;1.90;;
9972;SDS011;5027;53.560;10.062;2024-01-07T05:18:23;3.97;;;1.70;;
9972;SDS011;5027;53.560;10.062;2024-01-07T05:20:51;4.73;;;1.70;;
9972;SDS011;5027;53.560;10.062;2024-01-07T05:23:18;4.30;;;1.67;;
9972;SDS011;5027;53.560;10.062;2024-01-07T05:25:45;3.43;;;1.20;;
9972;SDS011;5027;53.560;10.062;2024-01-07T05:28:12;13.13;;;1.77;;
9972;SDS011;5027;53.560;10.062;2024-01-07T05:30:39;2.57;;;1.40;;
9972;SDS011;5027;53.560;10.062;2024-01-07T05:33:07;1.93;;;1.23;;
9972;SDS011;5027;53.560;10.062;2024-01-07T05:35:34;3.37;;;1.37;;
9972;SDS011;5027;53.560;10.062;2024-01-07T05:38:01;3.93;;;1.47;;
9972;SDS011;5027;53.560;10.062;2024-01-07T05:40:28;6.33;;;1.83;;
9972;SDS011;5027;53.560;10.062;2024-01-07T05:42:54;2.13;;;1.20;;
9972;SDS011;5027;53.560;10.062;2024-01-07T05:45:21;3.60;;;1.30;;
9972;SDS011;5027;53.560;10.062;2024-01-07T05:47:48;3.70;;;1.30;;
9972;SDS011;5027;53.560;10.062;2024-01-07T05:50:15;2.47;;;1.30;;
9972;SDS011;5027;53.560;10.062;2024-01-07T05:52:44;1.20;;;1.10;;
9972;SDS011;5027;53.560;10.062;2024-01-07T05:55:11;1.20;;;1.10;;
9972;SDS011;5027;53.560;10.062;2024-01-07T05:57:38;3.17;;;1.10;;
9972;SDS011;5027;53.560;10.062;2024-01-07T06:00:05;1.67;;;1.13;;
9972;SDS011;5027;53.560;10.062;2024-01-07T06:02:38;2.53;;;1.30;;
9972;SDS011;5027;53.560;10.062;2024-01-07T06:05:05;1.80;;;1.23;;
9972;SDS011;5027;53.560;10.062;2024-01-07T06:07:33;2.83;;;1.30;;
9972;SDS011;5027;53.560;10.062;2024-01-07T06:09:59;1.90;;;1.43;;
9972;SDS011;5027;53.560;10.062;2024-01-07T06:12:26;3.73;;;1.43;;
9972;SDS011;5027;53.560;10.062;2024-01-07T06:14:53;3.27;;;1.60;;
9972;SDS011;5027;53.560;10.062;2024-01-07T06:17:20;3.10;;;1.43;;
9972;SDS011;5027;53.560;10.062;2024-01-07T06:19:46;4.50;;;1.53;;
9972;SDS011;5027;53.560;10.062;2024-01-07T06:22:13;2.97;;;1.67;;
9972;SDS011;5027;53.560;10.062;2024-01-07T06:24:40;3.40;;;1.73;;
9972;SDS011;5027;53.560;10.062;2024-01-07T06:27:07;3.53;;;1.60;;
9972;SDS011;5027;53.560;10.062;2024-01-07T06:29:33;2.40;;;1.47;;
9972;SDS011;5027;53.560;10.062;2024-01-07T06:32:00;5.50;;;1.80;;
9972;SDS011;5027;53.560;10.062;2024-01-07T06:34:27;5.17;;;1.87;;
9972;SDS011;5027;53.560;10.062;2024-01-07T06:36:54;5.33;;;2.33;;
9972;SDS011;5027;53.560;10.062;2024-01-07T06:39:21;4.87;;;2.00;;
9972;SDS011;5027;53.560;10.062;2024-01-07T06:41:48;2.37;;;1.60;;
9972;SDS011;5027;53.560;10.062;2024-01-07T06:44:14;3.17;;;1.37;;
9972;SDS011;5027;53.560;10.062;2024-01-07T06:46:41;4.27;;;1.80;;
9972;SDS011;5027;53.560;10.062;2024-01-07T06:49:07;5.30;;;1.50;;
9972;SDS011;5027;53.560;10.062;2024-01-07T06:51:35;2.63;;;1.60;;
9972;SDS011;5027;53.560;10.062;2024-01-07T06:54:02;2.77;;;1.50;;
9972;SDS011;5027;53.560;10.062;2024-01-07T06:56:28;3.03;;;1.70;;
9972;SDS011;5027;53.560;10.062;2024-01-07T06:58:55;2.97;;;1.80;;
9972;SDS011;5027;53.560;10.062;2024-01-07T07:01:22;3.73;;;1.60;;
9972;SDS011;5027;53.560;10.062;2024-01-07T07:03:50;3.50;;;1.77;;
9972;SDS011;5027;53.560;10.062;2024-01-07T07:06:17;3.43;;;1.83;;
9972;SDS011;5027;53.560;10.062;2024-01-07T07:08:45;2.83;;;1.80;;
9972;SDS011;5027;53.560;10.062;2024-01-07T07:11:12;5.97;;;2.03;;
9972;SDS011;5027;53.560;10.062;2024-01-07T07:13:38;2.20;;;1.60;;
9972;SDS011;5027;53.560;10.062;2024-01-07T07:16:06;4.37;;;1.70;;
9972;SDS011;5027;53.560;10.062;2024-01-07T07:18:33;3.93;;;1.83;;
9972;SDS011;5027;53.560;10.062;2024-01-07T07:21:00;2.43;;;1.90;;
9972;SDS011;5027;53.560;10.062;2024-01-07T07:23:27;4.30;;;1.93;;
9972;SDS011;5027;53.560;10.062;2024-01-07T07:25:53;2.93;;;2.17;;
9972;SDS011;5027;53.560;10.062;2024-01-07T07:28:20;2.90;;;2.30;;
9972;SDS011;5027;53.560;10.062;2024-01-07T07:30:47;7.93;;;2.77;;
9972;SDS011;5027;53.560;10.062;2024-01-07T07:33:17;5.73;;;2.20;;
9972;SDS011;5027;53.560;10.062;2024-01-07T07:35:44;3.83;;;2.73;;
9972;SDS011;5027;53.560;10.062;2024-01-07T07:38:12;3.50;;;2.70;;
9972;SDS011;5027;53.560;10.062;2024-01-07T07:40:39;8.07;;;2.80;;
9972;SDS011;5027;53.560;10.062;2024-01-07T07:43:05;4.03;;;2.80;;
9972;SDS011;5027;53.560;10.062;2024-01-07T07:45:33;5.63;;;2.83;;
9972;SDS011;5027;53.560;10.062;2024-01-07T07:48:00;5.30;;;2.80;;
9972;SDS011;5027;53.560;10.062;2024-01-07T07:50:26;6.97;;;3.43;;
9972;SDS011;5027;53.560;10.062;2024-01-07T07:52:53;6.83;;;3.20;;
9972;SDS011;5027;53.560;10.062;2024-01-07T07:55:20;3.73;;;2.77;;
9972;SDS011;5027;53.560;10.062;2024-01-07T07:57:47;3.50;;;2.73;;
9972;SDS011;5027;53.560;10.062;2024-01-07T08:00:14;4.43;;;2.90;;
9972;SDS011;5027;53.560;10.062;2024-01-07T08:02:44;4.23;;;2.20;;
9972;SDS011;5027;53.560;10.062;2024-01-07T08:05:11;4.33;;;2.97;;
9972;SDS011;5027;53.560;10.062;2024-01-07T08:07:37;5.47;;;2.83;;
9972;SDS011;5027;53.560;10.062;2024-01-07T08:10:04;4.40;;;2.67;;
9972;SDS011;5027;53.560;10.062;2024-01-07T08:12:32;2.77;;;2.33;;
9972;SDS011;5027;53.560;10.062;2024-01-07T08:14:58;3.43;;;1.80;;
9972;SDS011;5027;53.560;10.062;2024-01-07T08:17:25;6.07;;;3.40;;
9972;SDS011;5027;53.560;10.062;2024-01-07T08:19:55;4.70;;;2.30;;
9972;SDS011;5027;53.560;10.062;2024-01-07T08:22:22;7.97;;;2.50;;
9972;SDS011;5027;53.560;10.062;2024-01-07T08:24:48;4.63;;;2.80;;
9972;SDS011;5027;53.560;10.062;2024-01-07T08:27:16;6.23;;;3.03;;
9972;SDS011;5027;53.560;10.062;2024-01-07T08:29:43;5.47;;;2.80;;
9972;SDS011;5027;53.560;10.062;2024-01-07T08:32:10;3.33;;;2.83;;
9972;SDS011;5027;53.560;10.062;2024-01-07T08:34:38;5.30;;;2.67;;
9972;SDS011;5027;53.560;10.062;2024-01-07T08:37:07;5.80;;;2.77;;
9972;SDS011;5027;53.560;10.062;2024-01-07T08:39:35;6.73;;;3.13;;
9972;SDS011;5027;53.560;10.062;2024-01-07T08:42:01;6.57;;;3.00;;
9972;SDS011;5027;53.560;10.062;2024-01-07T08:44:30;5.17;;;2.80;;
9972;SDS011;5027;53.560;10.062;2024-01-07T08:46:57;6.90;;;3.00;;
9972;SDS011;5027;53.560;10.062;2024-01-07T08:49:23;5.60;;;2.83;;
9972;SDS011;5027;53.560;10.062;2024-01-07T08:51:50;4.23;;;2.70;;
9972;SDS011;5027;53.560;10.062;2024-01-07T08:54:17;4.00;;;2.47;;
9972;SDS011;5027;53.560;10.062;2024-01-07T08:56:44;6.30;;;2.80;;
9972;SDS011;5027;53.560;10.062;2024-01-07T08:59:11;5.37;;;2.90;;
9972;SDS011;5027;53.560;10.062;2024-01-07T09:01:38;6.70;;;3.90;;
9972;SDS011;5027;53.560;10.062;2024-01-07T09:04:05;6.73;;;2.63;;
9972;SDS011;5027;53.560;10.062;2024-01-07T09:06:31;8.37;;;3.43;;
9972;SDS011;5027;53.560;10.062;2024-01-07T09:08:58;5.30;;;2.80;;
9972;SDS011;5027;53.560;10.062;2024-01-07T09:11:25;7.77;;;3.00;;
9972;SDS011;5027;53.560;10.062;2024-01-07T09:13:51;5.17;;;2.40;;
9972;SDS011;5027;53.560;10.062;2024-01-07T09:16:18;8.73;;;2.67;;
9972;SDS011;5027;53.560;10.062;2024-01-07T09:18:45;3.70;;;2.60;;
9972;SDS011;5027;53.560;10.062;2024-01-07T09:21:12;5.37;;;3.27;;
9972;SDS011;5027;53.560;10.062;2024-01-07T09:23:40;4.70;;;2.60;;
9972;SDS011;5027;53.560;10.062;2024-01-07T09:26:07;5.33;;;2.53;;
9972;SDS011;5027;53.560;10.062;2024-01-07T09:28:34;2.17;;;1.37;;
9972;SDS011;5027;53.560;10.062;2024-01-07T09:31:01;4.07;;;2.60;;
9972;SDS011;5027;53.560;10.062;2024-01-07T09:33:28;5.27;;;2.73;;
9972;SDS011;5027;53.560;10.062;2024-01-07T09:35:55;3.87;;;2.10;;
9972;SDS011;5027;53.560;10.062;2024-01-07T09:38:35;3.43;;;2.43;;
9972;SDS011;5027;53.560;10.062;2024-01-07T09:41:02;10.17;;;2.60;;
9972;SDS011;5027;53.560;10.062;2024-01-07T09:43:29;2.90;;;1.70;;
9972;SDS011;5027;53.560;10.062;2024-01-07T09:46:01;6.73;;;2.77;;
9972;SDS011;5027;53.560;10.062;2024-01-07T09:48:28;5.47;;;2.50;;
9972;SDS011;5027;53.560;10.062;2024-01-07T09:50:56;3.10;;;2.53;;
9972;SDS011;5027;53.560;10.062;2024-01-07T09:53:25;5.47;;;2.90;;
9972;SDS011;5027;53.560;10.062;2024-01-07T09:58:41;5.87;;;2.43;;
9972;SDS011;5027;53.560;10.062;2024-01-07T10:01:09;3.97;;;1.77;;
9972;SDS011;5027;53.560;10.062;2024-01-07T10:03:36;6.30;;;2.93;;
9972;SDS011;5027;53.560;10.062;2024-01-07T10:06:03;6.53;;;3.20;;
9972;SDS011;5027;53.560;10.062;2024-01-07T10:08:30;4.33;;;2.77;;
9972;SDS011;5027;53.560;10.062;2024-01-07T10:10:58;4.43;;;2.77;;
9972;SDS011;5027;53.560;10.062;2024-01-07T10:13:25;2.63;;;2.33;;
9972;SDS011;5027;53.560;10.062;2024-01-07T10:15:51;6.47;;;3.10;;
9972;SDS011;5027;53.560;10.062;2024-01-07T10:18:18;8.10;;;3.07;;
9972;SDS011;5027;53.560;10.062;2024-01-07T10:20:45;7.73;;;3.50;;
9972;SDS011;5027;53.560;10.062;2024-01-07T10:23:12;6.77;;;3.37;;
9972;SDS011;5027;53.560;10.062;2024-01-07T10:25:40;5.53;;;2.93;;
9972;SDS011;5027;53.560;10.062;2024-01-07T10:28:06;4.43;;;2.80;;
9972;SDS011;5027;53.560;10.062;2024-01-07T10:30:33;7.47;;;2.70;;
9972;SDS011;5027;53.560;10.062;2024-01-07T10:33:00;4.57;;;2.90;;
9972;SDS011;5027;53.560;10.062;2024-01-07T10:35:32;6.67;;;3.10;;
9972;SDS011;5027;53.560;10.062;2024-01-07T10:38:00;6.00;;;2.93;;
9972;SDS011;5027;53.560;10.062;2024-01-07T10:40:28;5.70;;;3.17;;
9972;SDS011;5027;53.560;10.062;2024-01-07T10:42:56;4.33;;;2.97;;
9972;SDS011;5027;53.560;10.062;2024-01-07T10:45:24;6.40;;;3.20;;
9972;SDS011;5027;53.560;10.062;2024-01-07T10:47:53;4.10;;;2.80;;
9972;SDS011;5027;53.560;10.062;2024-01-07T10:50:21;5.97;;;3.20;;
9972;SDS011;5027;53.560;10.062;2024-01-07T10:52:49;6.20;;;2.90;;
9972;SDS011;5027;53.560;10.062;2024-01-07T10:55:18;4.93;;;3.27;;
9972;SDS011;5027;53.560;10.062;2024-01-07T10:57:48;5.67;;;2.73;;
9972;SDS011;5027;53.560;10.062;2024-01-07T11:00:16;4.67;;;2.60;;
9972;SDS011;5027;53.560;10.062;2024-01-07T11:02:57;3.60;;;2.50;;
9972;SDS011;5027;53.560;10.062;2024-01-07T11:08:26;5.07;;;2.43;;
9972;SDS011;5027;53.560;10.062;2024-01-07T11:13:41;4.10;;;2.53;;
9972;SDS011;5027;53.560;10.062;2024-01-07T11:16:08;1.47;;;1.37;;
9972;SDS011;5027;53.560;10.062;2024-01-07T11:18:39;3.60;;;2.27;;
9972;SDS011;5027;53.560;10.062;2024-01-07T11:21:20;3.77;;;3.00;;
9972;SDS011;5027;53.560;10.062;2024-01-07T11:23:47;7.50;;;3.17;;
9972;SDS011;5027;53.560;10.062;2024-01-07T11:26:14;4.37;;;3.13;;
9972;SDS011;5027;53.560;10.062;2024-01-07T11:28:48;2.47;;;2.00;;
9972;SDS011;5027;53.560;10.062;2024-01-07T11:31:20;4.80;;;2.90;;
9972;SDS011;5027;53.560;10.062;2024-01-07T11:33:49;8.13;;;3.50;;
9972;SDS011;5027;53.560;10.062;2024-01-07T11:36:16;3.60;;;2.60;;
9972;SDS011;5027;53.560;10.062;2024-01-07T11:38:47;8.50;;;3.20;;
9972;SDS011;5027;53.560;10.062;2024-01-07T11:41:20;6.73;;;3.33;;
9972;SDS011;5027;53.560;10.062;2024-01-07T11:43:57;4.63;;;3.13;;
9972;SDS011;5027;53.560;10.062;2024-01-07T11:46:31;5.27;;;2.90;;
9972;SDS011;5027;53.560;10.062;2024-01-07T11:48:58;6.93;;;3.60;;
9972;SDS011;5027;53.560;10.062;2024-01-07T11:51:26;4.83;;;3.17;;
9972;SDS011;5027;53.560;10.062;2024-01-07T11:53:54;7.00;;;4.00;;
9972;SDS011;5027;53.560;10.062;2024-01-07T11:56:21;7.57;;;3.53;;
9972;SDS011;5027;53.560;10.062;2024-01-07T11:58:47;5.57;;;3.07;;
9972;SDS011;5027;53.560;10.062;2024-01-07T12:01:14;4.50;;;2.97;;
9972;SDS011;5027;53.560;10.062;2024-01-07T12:03:46;5.40;;;2.87;;
9972;SDS011;5027;53.560;10.062;2024-01-07T12:06:13;4.27;;;2.50;;
9972;SDS011;5027;53.560;10.062;2024-01-07T12:08:40;5.83;;;3.10;;
9972;SDS011;5027;53.560;10.062;2024-01-07T12:11:08;3.17;;;2.80;;
9972;SDS011;5027;53.560;10.062;2024-01-07T12:13:37;7.33;;;2.93;;
9972;SDS011;5027;53.560;10.062;2024-01-07T12:16:05;5.67;;;3.10;;
9972;SDS011;5027;53.560;10.062;2024-01-07T12:18:32;2.03;;;1.83;;
9972;SDS011;5027;53.560;10.062;2024-01-07T12:20:59;3.33;;;2.30;;
9972;SDS011;5027;53.560;10.062;2024-01-07T12:23:26;3.13;;;2.33;;
9972;SDS011;5027;53.560;10.062;2024-01-07T12:25:53;2.10;;;1.40;;
9972;SDS011;5027;53.560;10.062;2024-01-07T12:28:21;5.73;;;2.77;;
9972;SDS011;5027;53.560;10.062;2024-01-07T12:30:49;3.83;;;2.00;;
9972;SDS011;5027;53.560;10.062;2024-01-07T12:33:17;3.20;;;1.93;;
9972;SDS011;5027;53.560;10.062;2024-01-07T12:35:46;4.80;;;2.27;;
9972;SDS011;5027;53.560;10.062;2024-01-07T12:38:13;4.73;;;1.97;;
9972;SDS011;5027;53.560;10.062;2024-01-07T12:40:41;3.70;;;2.53;;
9972;SDS011;5027;53.560;10.062;2024-01-07T12:43:07;3.43;;;2.13;;
9972;SDS011;5027;53.560;10.062;2024-01-07T12:45:35;4.57;;;2.80;;
9972;SDS011;5027;53.560;10.062;2024-01-07T12:48:01;4.77;;;2.67;;
9972;SDS011;5027;53.560;10.062;2024-01-07T12:50:29;4.50;;;2.60;;
9972;SDS011;5027;53.560;10.062;2024-01-07T12:52:57;3.50;;;2.60;;
9972;SDS011;5027;53.560;10.062;2024-01-07T12:55:26;6.20;;;2.20;;
9972;SDS011;5027;53.560;10.062;2024-01-07T12:57:53;2.50;;;2.30;;
9972;SDS011;5027;53.560;10.062;2024-01-07T13:00:21;3.97;;;1.97;;
9972;SDS011;5027;53.560;10.062;2024-01-07T13:02:47;3.67;;;2.50;;
9972;SDS011;5027;53.560;10.062;2024-01-07T13:05:16;4.23;;;2.63;;
9972;SDS011;5027;53.560;10.062;2024-01-07T13:07:43;4.23;;;2.57;;
9972;SDS011;5027;53.560;10.062;2024-01-07T13:10:10;7.97;;;3.30;;
9972;SDS011;5027;53.560;10.062;2024-01-07T13:12:38;3.37;;;2.67;;
9972;SDS011;5027;53.560;10.062;2024-01-07T13:15:14;1.53;;;1.20;;
9972;SDS011;5027;53.560;10.062;2024-01-07T13:17:43;4.10;;;2.50;;
9972;SDS011;5027;53.560;10.062;2024-01-07T13:20:10;4.87;;;2.40;;
9972;SDS011;5027;53.560;10.062;2024-01-07T13:22:38;6.77;;;2.97;;
9972;SDS011;5027;53.560;10.062;2024-01-07T13:25:05;4.37;;;2.70;;
9972;SDS011;5027;53.560;10.062;2024-01-07T13:27:33;3.10;;;2.60;;
9972;SDS011;5027;53.560;10.062;2024-01-07T13:30:03;5.07;;;3.50;;
9972;SDS011;5027;53.560;10.062;2024-01-07T13:32:30;5.43;;;3.17;;
9972;SDS011;5027;53.560;10.062;2024-01-07T13:35:03;5.17;;;3.60;;
9972;SDS011;5027;53.560;10.062;2024-01-07T13:37:30;4.43;;;3.80;;
9972;SDS011;5027;53.560;10.062;2024-01-07T13:39:57;5.73;;;4.53;;
9972;SDS011;5027;53.560;10.062;2024-01-07T13:42:24;4.30;;;3.23;;
9972;SDS011;5027;53.560;10.062;2024-01-07T13:44:51;2.40;;;2.17;;
9972;SDS011;5027;53.560;10.062;2024-01-07T13:47:17;5.80;;;4.50;;
9972;SDS011;5027;53.560;10.062;2024-01-07T13:49:44;2.43;;;2.13;;
9972;SDS011;5027;53.560;10.062;2024-01-07T13:52:11;4.13;;;2.50;;
9972;SDS011;5027;53.560;10.062;2024-01-07T13:54:41;4.50;;;3.10;;
9972;SDS011;5027;53.560;10.062;2024-01-07T13:57:07;4.07;;;2.60;;
9972;SDS011;5027;53.560;10.062;2024-01-07T13:59:34;3.67;;;2.60;;
9972;SDS011;5027;53.560;10.062;2024-01-07T14:02:01;4.10;;;2.73;;
9972;SDS011;5027;53.560;10.062;2024-01-07T14:04:29;2.60;;;1.90;;
9972;SDS011;5027;53.560;10.062;2024-01-07T14:06:56;4.10;;;2.60;;
9972;SDS011;5027;53.560;10.062;2024-01-07T14:09:24;2.00;;;1.80;;
9972;SDS011;5027;53.560;10.062;2024-01-07T14:11:51;6.47;;;2.80;;
9972;SDS011;5027;53.560;10.062;2024-01-07T14:14:21;1.50;;;1.40;;
9972;SDS011;5027;53.560;10.062;2024-01-07T14:16:47;3.07;;;2.20;;
9972;SDS011;5027;53.560;10.062;2024-01-07T14:19:14;3.40;;;2.20;;
9972;SDS011;5027;53.560;10.062;2024-01-07T14:21:42;4.97;;;3.37;;
9972;SDS011;5027;53.560;10.062;2024-01-07T14:24:09;3.47;;;1.97;;
9972;SDS011;5027;53.560;10.062;2024-01-07T14:26:36;2.47;;;2.27;;
9972;SDS011;5027;53.560;10.062;2024-01-07T14:29:03;3.27;;;1.80;;
9972;SDS011;5027;53.560;10.062;2024-01-07T14:31:42;2.87;;;2.17;;
9972;SDS011;5027;53.560;10.062;2024-01-07T14:34:09;2.80;;;1.93;;
9972;SDS011;5027;53.560;10.062;2024-01-07T14:36:40;2.10;;;1.90;;
9972;SDS011;5027;53.560;10.062;2024-01-07T14:39:09;3.23;;;2.10;;
9972;SDS011;5027;53.560;10.062;2024-01-07T14:41:36;2.13;;;1.93;;
9972;SDS011;5027;53.560;10.062;2024-01-07T14:44:03;2.10;;;1.90;;
9972;SDS011;5027;53.560;10.062;2024-01-07T14:46:36;3.87;;;2.03;;
9972;SDS011;5027;53.560;10.062;2024-01-07T14:49:03;3.53;;;2.23;;
9972;SDS011;5027;53.560;10.062;2024-01-07T14:51:31;2.70;;;2.27;;
9972;SDS011;5027;53.560;10.062;2024-01-07T14:53:58;4.10;;;3.07;;
9972;SDS011;5027;53.560;10.062;2024-01-07T14:56:24;6.70;;;3.07;;
9972;SDS011;5027;53.560;10.062;2024-01-07T14:58:52;2.90;;;2.60;;
9972;SDS011;5027;53.560;10.062;2024-01-07T15:01:18;5.93;;;2.60;;
9972;SDS011;5027;53.560;10.062;2024-01-07T15:03:46;3.53;;;3.23;;
9972;SDS011;5027;53.560;10.062;2024-01-07T15:06:13;5.60;;;2.90;;
9972;SDS011;5027;53.560;10.062;2024-01-07T15:08:41;3.90;;;2.50;;
9972;SDS011;5027;53.560;10.062;2024-01-07T15:11:11;2.97;;;2.60;;